sensor_id;sensor_type;location;lat;lon;timestamp;temperature;humidity
29939;DHT22;16799;50.844;5.304;2023-12-28T00:02:06;10.20;99.90
29939;DHT22;16799;50.844;5.304;2023-12-28T00:04:32;10.20;99.90
29939;DHT22;16799;50.844;5.304;2023-12-28T00:07:00;10.20;99.90
29939;DHT22;16799;50.844;5.304;2023-12-28T00:09:25;10.20;99.90
29939;DHT22;16799;50.844;5.304;2023-12-28T00:11:51;10.20;99.90
29939;DHT22;16799;50.844;5.304;2023-12-28T00:14:17;10.20;99.90
29939;DHT22;16799;50.844;5.304;2023-12-28T00:16:42;10.30;99.90
29939;DHT22;16799;50.844;5.304;2023-12-28T00:19:08;10.10;99.90
29939;DHT22;16799;50.844;5.304;2023-12-28T00:21:34;10.20;99.90
29939;DHT22;16799;50.844;5.304;2023-12-28T00:23:59;10.20;99.90
29939;DHT22;16799;50.844;5.304;2023-12-28T00:26:25;10.10;99.90
29939;DHT22;16799;50.844;5.304;2023-12-28T00:28:51;10.10;99.90
29939;DHT22;16799;50.844;5.304;2023-12-28T00:31:16;10.10;99.90
29939;DHT22;16799;50.844;5.304;2023-12-28T00:33:42;10.10;99.90
29939;DHT22;16799;50.844;5.304;2023-12-28T00:36:08;10.10;99.90
29939;DHT22;16799;50.844;5.304;2023-12-28T00:38:33;10.10;99.90
29939;DHT22;16799;50.844;5.304;2023-12-28T00:40:59;10.10;99.90
29939;DHT22;16799;50.844;5.304;2023-12-28T00:43:25;10.10;99.90
29939;DHT22;16799;50.844;5.304;2023-12-28T00:45:50;10.10;99.90
29939;DHT22;16799;50.844;5.304;2023-12-28T00:48:16;10.00;99.90
29939;DHT22;16799;50.844;5.304;2023-12-28T00:50:41;10.00;99.90
29939;DHT22;16799;50.844;5.304;2023-12-28T00:53:07;10.00;99.90
29939;DHT22;16799;50.844;5.304;2023-12-28T00:55:33;10.00;99.90
29939;DHT22;16799;50.844;5.304;2023-12-28T00:57:58;10.00;99.90
29939;DHT22;16799;50.844;5.304;2023-12-28T01:00:24;10.10;99.90
29939;DHT22;16799;50.844;5.304;2023-12-28T01:02:49;10.10;99.90
29939;DHT22;16799;50.844;5.304;2023-12-28T01:05:16;10.10;99.90
29939;DHT22;16799;50.844;5.304;2023-12-28T01:07:42;10.30;99.90
29939;DHT22;16799;50.844;5.304;2023-12-28T01:10:08;10.10;99.90
29939;DHT22;16799;50.844;5.304;2023-12-28T01:12:33;10.20;99.90
29939;DHT22;16799;50.844;5.304;2023-12-28T01:14:59;10.00;99.90
29939;DHT22;16799;50.844;5.304;2023-12-28T01:17:25;10.10;99.90
29939;DHT22;16799;50.844;5.304;2023-12-28T01:19:50;10.10;99.90
29939;DHT22;16799;50.844;5.304;2023-12-28T01:22:16;10.10;99.90
29939;DHT22;16799;50.844;5.304;2023-12-28T01:24:42;10.10;99.90
29939;DHT22;16799;50.844;5.304;2023-12-28T01:27:07;10.20;99.90
29939;DHT22;16799;50.844;5.304;2023-12-28T01:29:33;10.20;99.90
29939;DHT22;16799;50.844;5.304;2023-12-28T01:31:59;10.20;99.90
29939;DHT22;16799;50.844;5.304;2023-12-28T01:34:25;10.20;99.90
29939;DHT22;16799;50.844;5.304;2023-12-28T01:36:51;10.30;99.90
29939;DHT22;16799;50.844;5.304;2023-12-28T01:39:17;10.20;99.90
29939;DHT22;16799;50.844;5.304;2023-12-28T01:41:44;10.20;99.90
29939;DHT22;16799;50.844;5.304;2023-12-28T01:44:10;10.20;99.90
29939;DHT22;16799;50.844;5.304;2023-12-28T01:46:36;10.20;99.90
29939;DHT22;16799;50.844;5.304;2023-12-28T01:49:03;10.30;99.90
29939;DHT22;16799;50.844;5.304;2023-12-28T01:51:31;10.20;99.90
29939;DHT22;16799;50.844;5.304;2023-12-28T01:53:57;10.20;99.90
29939;DHT22;16799;50.844;5.304;2023-12-28T01:56:23;10.30;99.90
29939;DHT22;16799;50.844;5.304;2023-12-28T01:58:50;10.30;99.90
29939;DHT22;16799;50.844;5.304;2023-12-28T02:01:17;10.30;99.90
29939;DHT22;16799;50.844;5.304;2023-12-28T02:03:44;10.40;99.90
29939;DHT22;16799;50.844;5.304;2023-12-28T02:06:10;10.50;99.90
29939;DHT22;16799;50.844;5.304;2023-12-28T02:08:36;10.40;99.90
29939;DHT22;16799;50.844;5.304;2023-12-28T02:11:02;10.40;99.90
29939;DHT22;16799;50.844;5.304;2023-12-28T02:13:28;10.40;99.90
29939;DHT22;16799;50.844;5.304;2023-12-28T02:16:28;10.30;99.90
29939;DHT22;16799;50.844;5.304;2023-12-28T02:18:57;10.30;99.90
29939;DHT22;16799;50.844;5.304;2023-12-28T02:21:25;10.30;99.90
29939;DHT22;16799;50.844;5.304;2023-12-28T02:23:51;10.30;99.90
29939;DHT22;16799;50.844;5.304;2023-12-28T02:26:17;10.30;99.90
29939;DHT22;16799;50.844;5.304;2023-12-28T02:28:46;10.30;99.90
29939;DHT22;16799;50.844;5.304;2023-12-28T02:31:30;10.20;99.90
29939;DHT22;16799;50.844;5.304;2023-12-28T02:34:06;10.20;99.90
29939;DHT22;16799;50.844;5.304;2023-12-28T02:36:35;10.30;99.90
29939;DHT22;16799;50.844;5.304;2023-12-28T02:39:02;10.20;99.90
29939;DHT22;16799;50.844;5.304;2023-12-28T02:41:30;10.30;99.90
29939;DHT22;16799;50.844;5.304;2023-12-28T02:43:56;10.30;99.90
29939;DHT22;16799;50.844;5.304;2023-12-28T02:46:22;10.30;99.90
29939;DHT22;16799;50.844;5.304;2023-12-28T02:48:48;10.40;99.90
29939;DHT22;16799;50.844;5.304;2023-12-28T02:51:14;10.30;99.90
29939;DHT22;16799;50.844;5.304;2023-12-28T02:53:41;10.20;99.90
29939;DHT22;16799;50.844;5.304;2023-12-28T02:56:07;10.20;99.90
29939;DHT22;16799;50.844;5.304;2023-12-28T02:58:33;10.20;99.90
29939;DHT22;16799;50.844;5.304;2023-12-28T03:00:59;10.30;99.90
29939;DHT22;16799;50.844;5.304;2023-12-28T03:03:24;10.30;99.90
29939;DHT22;16799;50.844;5.304;2023-12-28T03:05:50;10.30;99.90
29939;DHT22;16799;50.844;5.304;2023-12-28T03:08:15;10.30;99.90
29939;DHT22;16799;50.844;5.304;2023-12-28T03:10:42;10.30;99.90
29939;DHT22;16799;50.844;5.304;2023-12-28T03:13:07;10.30;99.90
29939;DHT22;16799;50.844;5.304;2023-12-28T03:15:33;10.30;99.90
29939;DHT22;16799;50.844;5.304;2023-12-28T03:17:58;10.30;99.90
29939;DHT22;16799;50.844;5.304;2023-12-28T03:20:24;10.30;99.90
29939;DHT22;16799;50.844;5.304;2023-12-28T03:22:50;10.20;99.90
29939;DHT22;16799;50.844;5.304;2023-12-28T03:25:15;10.10;99.90
29939;DHT22;16799;50.844;5.304;2023-12-28T03:27:41;10.20;99.90
29939;DHT22;16799;50.844;5.304;2023-12-28T03:30:07;10.20;99.90
29939;DHT22;16799;50.844;5.304;2023-12-28T03:32:33;10.20;99.90
29939;DHT22;16799;50.844;5.304;2023-12-28T03:34:58;10.20;99.90
29939;DHT22;16799;50.844;5.304;2023-12-28T03:37:24;10.10;99.90
29939;DHT22;16799;50.844;5.304;2023-12-28T03:39:50;10.20;99.90
29939;DHT22;16799;50.844;5.304;2023-12-28T03:42:16;10.20;99.90
29939;DHT22;16799;50.844;5.304;2023-12-28T03:44:41;10.30;99.90
29939;DHT22;16799;50.844;5.304;2023-12-28T03:47:07;10.30;99.90
29939;DHT22;16799;50.844;5.304;2023-12-28T03:49:33;10.20;99.90
29939;DHT22;16799;50.844;5.304;2023-12-28T03:51:59;10.20;99.90
29939;DHT22;16799;50.844;5.304;2023-12-28T03:54:24;10.10;99.90
29939;DHT22;16799;50.844;5.304;2023-12-28T03:56:50;10.10;99.90
29939;DHT22;16799;50.844;5.304;2023-12-28T03:59:15;10.10;99.90
29939;DHT22;16799;50.844;5.304;2023-12-28T04:01:41;10.10;99.90
29939;DHT22;16799;50.844;5.304;2023-12-28T04:04:07;10.10;99.90
29939;DHT22;16799;50.844;5.304;2023-12-28T04:06:32;10.00;99.90
29939;DHT22;16799;50.844;5.304;2023-12-28T04:08:58;10.00;99.90
29939;DHT22;16799;50.844;5.304;2023-12-28T04:11:23;10.10;99.90
29939;DHT22;16799;50.844;5.304;2023-12-28T04:13:49;10.10;99.90
29939;DHT22;16799;50.844;5.304;2023-12-28T04:16:16;10.30;99.90
29939;DHT22;16799;50.844;5.304;2023-12-28T04:18:42;10.20;99.90
29939;DHT22;16799;50.844;5.304;2023-12-28T04:21:09;10.20;99.90
29939;DHT22;16799;50.844;5.304;2023-12-28T04:23:36;10.40;99.90
29939;DHT22;16799;50.844;5.304;2023-12-28T04:26:02;10.40;99.90
29939;DHT22;16799;50.844;5.304;2023-12-28T04:28:27;10.40;99.90
29939;DHT22;16799;50.844;5.304;2023-12-28T04:30:53;10.40;99.90
29939;DHT22;16799;50.844;5.304;2023-12-28T04:33:18;10.40;99.90
29939;DHT22;16799;50.844;5.304;2023-12-28T04:35:45;10.40;99.90
29939;DHT22;16799;50.844;5.304;2023-12-28T04:38:11;10.30;99.90
29939;DHT22;16799;50.844;5.304;2023-12-28T04:40:36;10.30;99.90
29939;DHT22;16799;50.844;5.304;2023-12-28T04:43:02;10.20;99.90
29939;DHT22;16799;50.844;5.304;2023-12-28T04:45:28;10.30;99.90
29939;DHT22;16799;50.844;5.304;2023-12-28T04:47:54;10.30;99.90
29939;DHT22;16799;50.844;5.304;2023-12-28T04:50:20;10.40;99.90
29939;DHT22;16799;50.844;5.304;2023-12-28T04:52:45;10.50;99.90
29939;DHT22;16799;50.844;5.304;2023-12-28T04:55:11;10.40;99.90
29939;DHT22;16799;50.844;5.304;2023-12-28T04:57:36;10.50;99.90
29939;DHT22;16799;50.844;5.304;2023-12-28T05:00:02;10.50;99.90
29939;DHT22;16799;50.844;5.304;2023-12-28T05:02:28;10.50;99.90
29939;DHT22;16799;50.844;5.304;2023-12-28T05:04:54;10.50;99.90
29939;DHT22;16799;50.844;5.304;2023-12-28T05:07:20;10.50;99.90
29939;DHT22;16799;50.844;5.304;2023-12-28T05:09:45;10.50;99.90
29939;DHT22;16799;50.844;5.304;2023-12-28T05:12:11;10.50;99.90
29939;DHT22;16799;50.844;5.304;2023-12-28T05:14:37;10.50;99.90
29939;DHT22;16799;50.844;5.304;2023-12-28T05:17:03;10.50;99.90
29939;DHT22;16799;50.844;5.304;2023-12-28T05:19:29;10.50;99.90
29939;DHT22;16799;50.844;5.304;2023-12-28T05:21:55;10.40;99.90
29939;DHT22;16799;50.844;5.304;2023-12-28T05:24:21;10.40;99.90
29939;DHT22;16799;50.844;5.304;2023-12-28T05:26:46;10.40;99.90
29939;DHT22;16799;50.844;5.304;2023-12-28T05:29:12;10.40;99.90
29939;DHT22;16799;50.844;5.304;2023-12-28T05:31:37;10.30;99.90
29939;DHT22;16799;50.844;5.304;2023-12-28T05:34:03;10.30;99.90
29939;DHT22;16799;50.844;5.304;2023-12-28T05:36:30;10.20;99.90
29939;DHT22;16799;50.844;5.304;2023-12-28T05:38:56;10.20;99.90
29939;DHT22;16799;50.844;5.304;2023-12-28T05:41:21;10.20;99.90
29939;DHT22;16799;50.844;5.304;2023-12-28T05:43:47;10.20;99.90
29939;DHT22;16799;50.844;5.304;2023-12-28T05:46:13;10.10;99.90
29939;DHT22;16799;50.844;5.304;2023-12-28T05:48:39;10.10;99.90
29939;DHT22;16799;50.844;5.304;2023-12-28T05:51:05;10.10;99.90
29939;DHT22;16799;50.844;5.304;2023-12-28T05:53:30;10.00;99.90
29939;DHT22;16799;50.844;5.304;2023-12-28T05:55:56;10.00;99.90
29939;DHT22;16799;50.844;5.304;2023-12-28T05:58:21;10.00;99.90
29939;DHT22;16799;50.844;5.304;2023-12-28T06:00:47;10.10;99.90
29939;DHT22;16799;50.844;5.304;2023-12-28T06:03:14;10.00;99.90
29939;DHT22;16799;50.844;5.304;2023-12-28T06:05:39;10.00;99.90
29939;DHT22;16799;50.844;5.304;2023-12-28T06:08:05;10.00;99.90
29939;DHT22;16799;50.844;5.304;2023-12-28T06:10:31;10.00;99.90
29939;DHT22;16799;50.844;5.304;2023-12-28T06:12:56;10.00;99.90
29939;DHT22;16799;50.844;5.304;2023-12-28T06:15:22;10.00;99.90
29939;DHT22;16799;50.844;5.304;2023-12-28T06:17:48;10.00;99.90
29939;DHT22;16799;50.844;5.304;2023-12-28T06:20:13;10.00;99.90
29939;DHT22;16799;50.844;5.304;2023-12-28T06:22:39;9.90;99.90
29939;DHT22;16799;50.844;5.304;2023-12-28T06:25:05;9.90;99.90
29939;DHT22;16799;50.844;5.304;2023-12-28T06:27:32;9.90;99.90
29939;DHT22;16799;50.844;5.304;2023-12-28T06:29:58;10.00;99.90
29939;DHT22;16799;50.844;5.304;2023-12-28T06:32:24;10.10;99.90
29939;DHT22;16799;50.844;5.304;2023-12-28T06:34:49;10.10;99.90
29939;DHT22;16799;50.844;5.304;2023-12-28T06:37:15;10.20;99.90
29939;DHT22;16799;50.844;5.304;2023-12-28T06:39:41;10.30;99.90
29939;DHT22;16799;50.844;5.304;2023-12-28T06:42:06;10.40;99.90
29939;DHT22;16799;50.844;5.304;2023-12-28T06:44:32;10.40;99.90
29939;DHT22;16799;50.844;5.304;2023-12-28T06:46:58;10.40;99.90
29939;DHT22;16799;50.844;5.304;2023-12-28T06:49:24;10.40;99.90
29939;DHT22;16799;50.844;5.304;2023-12-28T06:51:50;10.40;99.90
29939;DHT22;16799;50.844;5.304;2023-12-28T06:54:16;10.40;99.90
29939;DHT22;16799;50.844;5.304;2023-12-28T06:56:42;10.50;99.90
29939;DHT22;16799;50.844;5.304;2023-12-28T06:59:08;10.40;99.90
29939;DHT22;16799;50.844;5.304;2023-12-28T07:01:40;10.40;99.90
29939;DHT22;16799;50.844;5.304;2023-12-28T07:04:07;10.50;99.90
29939;DHT22;16799;50.844;5.304;2023-12-28T07:06:32;10.50;99.90
29939;DHT22;16799;50.844;5.304;2023-12-28T07:08:58;10.50;99.90
29939;DHT22;16799;50.844;5.304;2023-12-28T07:11:24;10.50;99.90
29939;DHT22;16799;50.844;5.304;2023-12-28T07:13:49;10.40;99.90
29939;DHT22;16799;50.844;5.304;2023-12-28T07:16:15;10.40;99.90
29939;DHT22;16799;50.844;5.304;2023-12-28T07:18:41;10.40;99.90
29939;DHT22;16799;50.844;5.304;2023-12-28T07:21:07;10.40;99.90
29939;DHT22;16799;50.844;5.304;2023-12-28T07:23:35;10.40;99.90
29939;DHT22;16799;50.844;5.304;2023-12-28T07:26:01;10.40;99.90
29939;DHT22;16799;50.844;5.304;2023-12-28T07:28:26;10.40;99.90
29939;DHT22;16799;50.844;5.304;2023-12-28T07:30:53;10.40;99.90
29939;DHT22;16799;50.844;5.304;2023-12-28T07:33:19;10.40;99.90
29939;DHT22;16799;50.844;5.304;2023-12-28T07:35:45;10.30;99.90
29939;DHT22;16799;50.844;5.304;2023-12-28T07:38:11;10.30;99.90
29939;DHT22;16799;50.844;5.304;2023-12-28T07:40:37;10.30;99.90
29939;DHT22;16799;50.844;5.304;2023-12-28T07:43:03;10.30;99.90
29939;DHT22;16799;50.844;5.304;2023-12-28T07:45:28;10.30;99.90
29939;DHT22;16799;50.844;5.304;2023-12-28T07:47:54;10.30;99.90
29939;DHT22;16799;50.844;5.304;2023-12-28T07:50:20;10.30;99.90
29939;DHT22;16799;50.844;5.304;2023-12-28T07:52:47;10.20;99.90
29939;DHT22;16799;50.844;5.304;2023-12-28T07:55:12;10.10;99.90
29939;DHT22;16799;50.844;5.304;2023-12-28T07:57:38;10.20;99.90
29939;DHT22;16799;50.844;5.304;2023-12-28T08:00:05;10.10;99.90
29939;DHT22;16799;50.844;5.304;2023-12-28T08:02:31;10.10;99.90
29939;DHT22;16799;50.844;5.304;2023-12-28T08:04:56;10.10;99.90
29939;DHT22;16799;50.844;5.304;2023-12-28T08:07:22;10.20;99.90
29939;DHT22;16799;50.844;5.304;2023-12-28T08:09:48;10.10;99.90
29939;DHT22;16799;50.844;5.304;2023-12-28T08:12:13;10.20;99.90
29939;DHT22;16799;50.844;5.304;2023-12-28T08:14:39;10.20;99.90
29939;DHT22;16799;50.844;5.304;2023-12-28T08:17:05;10.20;99.90
29939;DHT22;16799;50.844;5.304;2023-12-28T08:19:30;10.20;99.90
29939;DHT22;16799;50.844;5.304;2023-12-28T08:21:56;10.30;99.90
29939;DHT22;16799;50.844;5.304;2023-12-28T08:24:21;10.30;99.90
29939;DHT22;16799;50.844;5.304;2023-12-28T08:26:47;10.30;99.90
29939;DHT22;16799;50.844;5.304;2023-12-28T08:29:13;10.30;99.90
29939;DHT22;16799;50.844;5.304;2023-12-28T08:31:38;10.40;99.90
29939;DHT22;16799;50.844;5.304;2023-12-28T08:34:04;10.50;99.90
29939;DHT22;16799;50.844;5.304;2023-12-28T08:36:30;10.50;99.90
29939;DHT22;16799;50.844;5.304;2023-12-28T08:38:55;10.50;99.90
29939;DHT22;16799;50.844;5.304;2023-12-28T08:41:22;10.50;99.90
29939;DHT22;16799;50.844;5.304;2023-12-28T08:43:50;10.50;99.90
29939;DHT22;16799;50.844;5.304;2023-12-28T08:46:16;10.50;99.90
29939;DHT22;16799;50.844;5.304;2023-12-28T08:48:42;10.60;99.90
29939;DHT22;16799;50.844;5.304;2023-12-28T08:51:09;10.80;99.90
29939;DHT22;16799;50.844;5.304;2023-12-28T08:53:35;10.80;99.90
29939;DHT22;16799;50.844;5.304;2023-12-28T08:56:01;10.80;99.90
29939;DHT22;16799;50.844;5.304;2023-12-28T08:58:27;10.90;99.90
29939;DHT22;16799;50.844;5.304;2023-12-28T09:00:52;10.90;99.90
29939;DHT22;16799;50.844;5.304;2023-12-28T09:03:18;11.00;99.90
29939;DHT22;16799;50.844;5.304;2023-12-28T09:05:44;11.10;99.90
29939;DHT22;16799;50.844;5.304;2023-12-28T09:08:09;11.20;99.90
29939;DHT22;16799;50.844;5.304;2023-12-28T09:10:35;11.40;99.90
29939;DHT22;16799;50.844;5.304;2023-12-28T09:13:03;11.50;99.90
29939;DHT22;16799;50.844;5.304;2023-12-28T09:15:29;11.60;99.90
29939;DHT22;16799;50.844;5.304;2023-12-28T09:17:56;11.70;99.90
29939;DHT22;16799;50.844;5.304;2023-12-28T09:20:21;11.80;99.90
29939;DHT22;16799;50.844;5.304;2023-12-28T09:22:47;11.90;99.90
29939;DHT22;16799;50.844;5.304;2023-12-28T09:25:16;12.00;99.90
29939;DHT22;16799;50.844;5.304;2023-12-28T09:27:41;11.90;99.90
29939;DHT22;16799;50.844;5.304;2023-12-28T09:30:07;12.00;99.90
29939;DHT22;16799;50.844;5.304;2023-12-28T09:32:33;12.10;99.90
29939;DHT22;16799;50.844;5.304;2023-12-28T09:34:59;12.20;99.90
29939;DHT22;16799;50.844;5.304;2023-12-28T09:37:24;12.30;99.90
29939;DHT22;16799;50.844;5.304;2023-12-28T09:39:50;12.30;99.90
29939;DHT22;16799;50.844;5.304;2023-12-28T09:42:26;12.30;99.90
29939;DHT22;16799;50.844;5.304;2023-12-28T09:44:54;12.20;99.90
29939;DHT22;16799;50.844;5.304;2023-12-28T09:47:20;12.20;99.90
29939;DHT22;16799;50.844;5.304;2023-12-28T09:49:47;12.10;99.90
29939;DHT22;16799;50.844;5.304;2023-12-28T09:52:12;11.90;99.90
29939;DHT22;16799;50.844;5.304;2023-12-28T09:54:38;11.80;99.90
29939;DHT22;16799;50.844;5.304;2023-12-28T09:57:04;11.70;99.90
29939;DHT22;16799;50.844;5.304;2023-12-28T09:59:32;11.60;99.90
29939;DHT22;16799;50.844;5.304;2023-12-28T10:01:59;11.60;99.90
29939;DHT22;16799;50.844;5.304;2023-12-28T10:04:26;11.50;99.90
29939;DHT22;16799;50.844;5.304;2023-12-28T10:06:54;11.50;99.90
29939;DHT22;16799;50.844;5.304;2023-12-28T10:09:21;11.50;99.90
29939;DHT22;16799;50.844;5.304;2023-12-28T10:11:47;11.70;99.90
29939;DHT22;16799;50.844;5.304;2023-12-28T10:14:13;11.70;99.90
29939;DHT22;16799;50.844;5.304;2023-12-28T10:16:42;12.00;99.90
29939;DHT22;16799;50.844;5.304;2023-12-28T10:19:08;12.40;99.90
29939;DHT22;16799;50.844;5.304;2023-12-28T10:21:33;12.40;99.90
29939;DHT22;16799;50.844;5.304;2023-12-28T10:23:59;12.50;99.90
29939;DHT22;16799;50.844;5.304;2023-12-28T10:26:26;12.60;99.90
29939;DHT22;16799;50.844;5.304;2023-12-28T10:29:01;12.70;99.90
29939;DHT22;16799;50.844;5.304;2023-12-28T10:31:28;12.80;99.90
29939;DHT22;16799;50.844;5.304;2023-12-28T10:33:58;12.70;99.90
29939;DHT22;16799;50.844;5.304;2023-12-28T10:36:24;12.60;99.90
29939;DHT22;16799;50.844;5.304;2023-12-28T10:38:53;12.50;99.90
29939;DHT22;16799;50.844;5.304;2023-12-28T10:41:20;12.60;99.90
29939;DHT22;16799;50.844;5.304;2023-12-28T10:44:03;12.50;99.90
29939;DHT22;16799;50.844;5.304;2023-12-28T10:46:31;12.60;99.90
29939;DHT22;16799;50.844;5.304;2023-12-28T10:49:05;12.60;99.90
29939;DHT22;16799;50.844;5.304;2023-12-28T10:51:36;12.40;99.90
29939;DHT22;16799;50.844;5.304;2023-12-28T10:57:01;12.80;99.90
29939;DHT22;16799;50.844;5.304;2023-12-28T11:01:56;12.40;99.90
29939;DHT22;16799;50.844;5.304;2023-12-28T11:06:56;12.50;99.90
29939;DHT22;16799;50.844;5.304;2023-12-28T11:09:24;12.50;99.90
29939;DHT22;16799;50.844;5.304;2023-12-28T11:11:53;12.50;99.90
29939;DHT22;16799;50.844;5.304;2023-12-28T11:14:21;12.40;99.90
29939;DHT22;16799;50.844;5.304;2023-12-28T11:16:48;12.70;99.90
29939;DHT22;16799;50.844;5.304;2023-12-28T11:19:14;12.80;99.90
29939;DHT22;16799;50.844;5.304;2023-12-28T11:21:40;12.90;99.90
29939;DHT22;16799;50.844;5.304;2023-12-28T11:24:07;12.90;99.90
29939;DHT22;16799;50.844;5.304;2023-12-28T11:26:32;12.90;99.90
29939;DHT22;16799;50.844;5.304;2023-12-28T11:29:02;13.10;99.90
29939;DHT22;16799;50.844;5.304;2023-12-28T11:31:28;13.20;99.90
29939;DHT22;16799;50.844;5.304;2023-12-28T11:33:57;13.40;99.90
29939;DHT22;16799;50.844;5.304;2023-12-28T11:36:46;13.50;99.90
29939;DHT22;16799;50.844;5.304;2023-12-28T11:39:14;13.50;99.90
29939;DHT22;16799;50.844;5.304;2023-12-28T11:41:45;13.60;99.90
29939;DHT22;16799;50.844;5.304;2023-12-28T11:44:11;13.40;99.90
29939;DHT22;16799;50.844;5.304;2023-12-28T11:46:36;13.30;99.90
29939;DHT22;16799;50.844;5.304;2023-12-28T11:49:06;13.40;99.90
29939;DHT22;16799;50.844;5.304;2023-12-28T11:51:38;13.40;99.90
29939;DHT22;16799;50.844;5.304;2023-12-28T11:54:04;13.40;99.90
29939;DHT22;16799;50.844;5.304;2023-12-28T11:56:30;13.60;99.90
29939;DHT22;16799;50.844;5.304;2023-12-28T11:58:56;13.50;99.90
29939;DHT22;16799;50.844;5.304;2023-12-28T12:01:24;13.70;99.90
29939;DHT22;16799;50.844;5.304;2023-12-28T12:03:49;13.60;99.90
29939;DHT22;16799;50.844;5.304;2023-12-28T12:06:15;13.40;99.90
29939;DHT22;16799;50.844;5.304;2023-12-28T12:08:45;13.20;99.90
29939;DHT22;16799;50.844;5.304;2023-12-28T12:11:11;13.10;99.90
29939;DHT22;16799;50.844;5.304;2023-12-28T12:13:37;12.80;99.90
29939;DHT22;16799;50.844;5.304;2023-12-28T12:16:03;12.80;99.90
29939;DHT22;16799;50.844;5.304;2023-12-28T12:18:34;12.90;99.90
29939;DHT22;16799;50.844;5.304;2023-12-28T12:21:01;12.80;99.90
29939;DHT22;16799;50.844;5.304;2023-12-28T12:23:28;13.00;99.90
29939;DHT22;16799;50.844;5.304;2023-12-28T12:25:53;13.00;99.90
29939;DHT22;16799;50.844;5.304;2023-12-28T12:28:19;13.00;99.90
29939;DHT22;16799;50.844;5.304;2023-12-28T12:30:55;13.10;99.90
29939;DHT22;16799;50.844;5.304;2023-12-28T12:33:24;13.20;99.90
29939;DHT22;16799;50.844;5.304;2023-12-28T12:35:51;13.20;99.90
29939;DHT22;16799;50.844;5.304;2023-12-28T12:38:17;12.90;99.90
29939;DHT22;16799;50.844;5.304;2023-12-28T12:40:43;12.70;99.90
29939;DHT22;16799;50.844;5.304;2023-12-28T12:43:08;12.70;99.90
29939;DHT22;16799;50.844;5.304;2023-12-28T12:45:35;12.80;99.90
29939;DHT22;16799;50.844;5.304;2023-12-28T12:48:02;12.80;99.90
29939;DHT22;16799;50.844;5.304;2023-12-28T12:50:30;12.80;99.90
29939;DHT22;16799;50.844;5.304;2023-12-28T12:52:59;12.80;99.90
29939;DHT22;16799;50.844;5.304;2023-12-28T12:55:25;13.00;99.90
29939;DHT22;16799;50.844;5.304;2023-12-28T12:57:52;12.90;99.90
29939;DHT22;16799;50.844;5.304;2023-12-28T13:00:21;12.70;99.90
29939;DHT22;16799;50.844;5.304;2023-12-28T13:02:47;12.70;99.90
29939;DHT22;16799;50.844;5.304;2023-12-28T13:05:17;12.60;99.90
29939;DHT22;16799;50.844;5.304;2023-12-28T13:07:42;12.50;99.90
29939;DHT22;16799;50.844;5.304;2023-12-28T13:10:09;12.70;99.90
29939;DHT22;16799;50.844;5.304;2023-12-28T13:12:36;12.60;99.90
29939;DHT22;16799;50.844;5.304;2023-12-28T13:15:01;12.60;99.90
29939;DHT22;16799;50.844;5.304;2023-12-28T13:17:27;12.60;99.90
29939;DHT22;16799;50.844;5.304;2023-12-28T13:19:53;12.70;99.90
29939;DHT22;16799;50.844;5.304;2023-12-28T13:22:18;12.80;99.90
29939;DHT22;16799;50.844;5.304;2023-12-28T13:24:44;12.80;99.90
29939;DHT22;16799;50.844;5.304;2023-12-28T13:27:10;12.60;99.90
29939;DHT22;16799;50.844;5.304;2023-12-28T13:29:36;12.70;99.90
29939;DHT22;16799;50.844;5.304;2023-12-28T13:32:02;12.70;99.90
29939;DHT22;16799;50.844;5.304;2023-12-28T13:34:27;12.60;99.90
29939;DHT22;16799;50.844;5.304;2023-12-28T13:36:54;12.50;99.90
29939;DHT22;16799;50.844;5.304;2023-12-28T13:39:19;12.40;99.90
29939;DHT22;16799;50.844;5.304;2023-12-28T13:41:45;12.40;99.90
29939;DHT22;16799;50.844;5.304;2023-12-28T13:44:11;12.30;99.90
29939;DHT22;16799;50.844;5.304;2023-12-28T13:46:38;12.30;99.90
29939;DHT22;16799;50.844;5.304;2023-12-28T13:49:04;12.30;99.90
29939;DHT22;16799;50.844;5.304;2023-12-28T13:51:31;12.40;99.90
29939;DHT22;16799;50.844;5.304;2023-12-28T13:53:57;12.40;99.90
29939;DHT22;16799;50.844;5.304;2023-12-28T13:56:23;12.30;99.90
29939;DHT22;16799;50.844;5.304;2023-12-28T13:58:48;12.40;99.90
29939;DHT22;16799;50.844;5.304;2023-12-28T14:01:14;12.30;99.90
29939;DHT22;16799;50.844;5.304;2023-12-28T14:03:40;12.10;99.90
29939;DHT22;16799;50.844;5.304;2023-12-28T14:06:06;12.20;99.90
29939;DHT22;16799;50.844;5.304;2023-12-28T14:08:32;12.20;99.90
29939;DHT22;16799;50.844;5.304;2023-12-28T14:10:57;12.10;99.90
29939;DHT22;16799;50.844;5.304;2023-12-28T14:13:23;12.10;99.90
29939;DHT22;16799;50.844;5.304;2023-12-28T14:15:49;12.10;99.90
29939;DHT22;16799;50.844;5.304;2023-12-28T14:18:14;12.10;99.90
29939;DHT22;16799;50.844;5.304;2023-12-28T14:20:40;12.00;99.90
29939;DHT22;16799;50.844;5.304;2023-12-28T14:23:06;12.00;99.90
29939;DHT22;16799;50.844;5.304;2023-12-28T14:25:32;12.00;99.90
29939;DHT22;16799;50.844;5.304;2023-12-28T14:27:58;11.90;99.90
29939;DHT22;16799;50.844;5.304;2023-12-28T14:30:24;12.00;99.90
29939;DHT22;16799;50.844;5.304;2023-12-28T14:32:50;11.90;99.90
29939;DHT22;16799;50.844;5.304;2023-12-28T14:35:16;11.90;99.90
29939;DHT22;16799;50.844;5.304;2023-12-28T14:37:44;11.90;99.90
29939;DHT22;16799;50.844;5.304;2023-12-28T14:40:10;11.80;99.90
29939;DHT22;16799;50.844;5.304;2023-12-28T14:42:37;11.80;99.90
29939;DHT22;16799;50.844;5.304;2023-12-28T14:45:03;11.80;99.90
29939;DHT22;16799;50.844;5.304;2023-12-28T14:47:28;11.70;99.90
29939;DHT22;16799;50.844;5.304;2023-12-28T14:49:54;11.70;99.90
29939;DHT22;16799;50.844;5.304;2023-12-28T14:52:22;11.60;99.90
29939;DHT22;16799;50.844;5.304;2023-12-28T14:54:48;11.50;99.90
29939;DHT22;16799;50.844;5.304;2023-12-28T14:57:18;11.60;99.90
29939;DHT22;16799;50.844;5.304;2023-12-28T14:59:44;11.60;99.90
29939;DHT22;16799;50.844;5.304;2023-12-28T15:02:10;11.60;99.90
29939;DHT22;16799;50.844;5.304;2023-12-28T15:04:35;11.60;99.90
29939;DHT22;16799;50.844;5.304;2023-12-28T15:07:03;11.60;99.90
29939;DHT22;16799;50.844;5.304;2023-12-28T15:09:29;11.40;99.90
29939;DHT22;16799;50.844;5.304;2023-12-28T15:11:56;11.40;99.90
29939;DHT22;16799;50.844;5.304;2023-12-28T15:14:22;11.40;99.90
29939;DHT22;16799;50.844;5.304;2023-12-28T15:16:48;11.30;99.90
29939;DHT22;16799;50.844;5.304;2023-12-28T15:19:14;11.40;99.90
29939;DHT22;16799;50.844;5.304;2023-12-28T15:21:40;11.40;99.90
29939;DHT22;16799;50.844;5.304;2023-12-28T15:24:06;11.40;99.90
29939;DHT22;16799;50.844;5.304;2023-12-28T15:26:32;11.40;99.90
29939;DHT22;16799;50.844;5.304;2023-12-28T15:28:58;11.40;99.90
29939;DHT22;16799;50.844;5.304;2023-12-28T15:31:24;11.40;99.90
29939;DHT22;16799;50.844;5.304;2023-12-28T15:33:50;11.30;99.90